QCJ weather

Botucatu - Tancredo de Almeida Neves Airport
Botucatu, São Paulo, Brazil

Public forecast

Using degrees Celsius for public forecast. Weather courtesy of forecast.io.

Closest aviation weather report (METAR) to Botucatu - Tancredo de Almeida Neves Airport

Closest report is Bauru Airport, 48.2 nm (89.4 km) NW. Retrieved 2020/02/27 14:00 UTC (29 minutes ago):

SBBU 271400Z 10009G19KT CAVOK 23/23 Q1016

Closest aviation forecast (TAF) to Botucatu - Tancredo de Almeida Neves Airport

Closest forecast is Bauru Airport, 48.2 nm (89.4 km) NW. Retrieved 2020/02/27 12:36 UTC (2 hours ago):

TAF SBBU 270915Z 2712/2724 09010KT 9999 BKN015 TX27/2718Z TN20/2723Z BECMG 2713/2715 SCT030 RMK PDW